Time;durP1;ratioP1;P1;durP2;ratioP2;P2;SDS_P1;SDS_P2;PMS_P1;PMS_P2;Temp;Humidity;BMP_temperature;BMP_pressure;BME280_temperature;BME280_humidity;BME280_pressure;Samples;Min_cycle;Max_cycle;Signal;HPM_P1;HPM_P2
2022/08/20 00:00:36;;;;;;;1.83;1.40;;;;;;;20.79;74.18;98003.53;5055610;28;20221;-70
2022/08/20 00:03:11;;;;;;;1.30;1.20;;;;;;;20.77;74.11;98009.22;5055959;28;20300;-70
2022/08/20 00:05:44;;;;;;;1.37;1.20;;;;;;;20.68;74.91;98010.94;5055774;28;20287;-71
2022/08/20 00:08:10;;;;;;;1.23;1.13;;;;;;;20.66;74.94;98004.19;5056150;28;20281;-70
2022/08/20 00:10:44;;;;;;;1.47;1.30;;;;;;;20.62;75.22;98013.97;5055619;28;20233;-70
2022/08/20 00:13:15;;;;;;;2.57;1.40;;;;;;;20.56;75.72;98013.19;5055488;28;20276;-70
2022/08/20 00:15:41;;;;;;;1.20;1.20;;;;;;;20.53;75.94;98004.84;5056036;28;20546;-70
2022/08/20 00:18:09;;;;;;;1.23;1.23;;;;;;;20.51;76.16;98009.72;5055672;28;20571;-70
2022/08/20 00:20:40;;;;;;;2.10;1.20;;;;;;;20.49;76.09;98011.91;5055269;28;20759;-71
2022/08/20 00:23:06;;;;;;;1.23;1.23;;;;;;;20.49;75.93;98007.31;5055639;28;20280;-70
2022/08/20 00:25:34;;;;;;;3.83;1.50;;;;;;;20.39;76.97;98003.91;5055557;28;20209;-70
2022/08/20 00:28:02;;;;;;;3.70;1.17;;;;;;;20.34;77.37;98007.44;5055013;28;20315;-70
2022/08/20 00:30:30;;;;;;;1.33;1.23;;;;;;;20.34;77.63;98004.72;5054977;28;20235;-70
2022/08/20 00:33:00;;;;;;;1.40;1.13;;;;;;;20.32;77.61;98015.00;5055435;28;20216;-70
2022/08/20 00:35:30;;;;;;;1.40;1.30;;;;;;;20.36;77.70;98015.25;5055350;28;20228;-71
2022/08/20 00:37:57;;;;;;;1.33;1.23;;;;;;;20.36;77.65;98007.16;5055337;28;20205;-70
2022/08/20 00:40:27;;;;;;;2.60;1.23;;;;;;;20.31;77.83;98007.19;5055197;28;20228;-70
2022/08/20 00:42:57;;;;;;;1.30;1.20;;;;;;;20.31;78.05;98012.59;5054935;28;20303;-71
2022/08/20 00:45:25;;;;;;;0.97;0.97;;;;;;;20.32;77.99;98008.78;5055125;28;20209;-70
2022/08/20 00:47:54;;;;;;;1.23;1.17;;;;;;;20.34;78.08;98012.03;5055110;28;20298;-70
2022/08/20 00:50:23;;;;;;;2.53;1.13;;;;;;;20.31;77.78;98015.28;5054643;28;20598;-70
2022/08/20 00:52:52;;;;;;;1.30;1.10;;;;;;;20.28;78.23;98011.25;5054738;28;20205;-70
2022/08/20 00:55:22;;;;;;;2.17;1.40;;;;;;;20.32;78.09;98019.59;5054931;28;20205;-70
2022/08/20 00:57:56;;;;;;;1.90;1.13;;;;;;;20.36;78.11;98020.66;5054804;28;20296;-70
2022/08/20 01:00:33;;;;;;;2.17;1.20;;;;;;;20.34;78.13;98022.84;5054836;28;20233;-70
2022/08/20 01:03:00;;;;;;;3.13;1.30;;;;;;;20.37;77.62;98014.16;5054831;28;20211;-70
2022/08/20 01:05:28;;;;;;;1.13;1.03;;;;;;;20.39;77.48;98015.47;5054790;28;20304;-70
2022/08/20 01:07:55;;;;;;;1.50;1.40;;;;;;;20.39;77.55;98020.09;5054420;28;20233;-70
2022/08/20 01:10:27;;;;;;;1.20;1.20;;;;;;;20.40;77.71;98022.53;5036897;28;20229;-71
2022/08/20 01:12:56;;;;;;;2.70;1.30;;;;;;;20.45;77.45;98019.78;5054722;28;20193;-70
2022/08/20 01:15:27;;;;;;;1.00;1.00;;;;;;;20.43;77.73;98034.66;5036613;28;20213;-70
2022/08/20 01:17:57;;;;;;;1.70;1.20;;;;;;;20.45;77.53;98029.75;5054279;28;20193;-70
2022/08/20 01:20:31;;;;;;;1.40;1.23;;;;;;;20.43;78.07;98032.72;5054178;28;20304;-71
2022/08/20 01:23:28;;;;;;;1.13;1.13;;;;;;;20.42;77.49;98031.13;5054205;28;20728;-70
2022/08/20 01:26:12;;;;;;;1.30;1.20;;;;;;;20.39;77.96;98034.38;5054404;28;20205;-70
2022/08/20 01:28:42;;;;;;;1.33;1.20;;;;;;;20.42;77.82;98041.13;5054190;28;20310;-70
2022/08/20 01:31:18;;;;;;;1.47;1.20;;;;;;;20.39;77.91;98042.50;5053588;28;20320;-70
2022/08/20 01:33:46;;;;;;;1.10;1.10;;;;;;;20.35;78.27;98036.03;5053851;28;20593;-70
2022/08/20 01:36:15;;;;;;;1.30;1.20;;;;;;;20.39;77.93;98042.50;5054277;28;20237;-71
2022/08/20 01:38:43;;;;;;;1.23;1.23;;;;;;;20.31;78.78;98042.28;5052952;28;20212;-70
2022/08/20 01:41:21;;;;;;;1.60;1.50;;;;;;;20.41;77.94;98037.63;5054155;28;20212;-70
2022/08/20 01:43:52;;;;;;;1.43;1.27;;;;;;;20.38;78.10;98043.59;5054112;28;20193;-70
2022/08/20 01:46:19;;;;;;;1.67;1.10;;;;;;;20.36;77.96;98047.66;5054001;28;20232;-70
2022/08/20 01:48:45;;;;;;;1.20;1.20;;;;;;;20.40;77.78;98054.94;5053816;28;20205;-70
2022/08/20 01:51:20;;;;;;;3.50;1.10;;;;;;;20.38;78.06;98045.47;5053883;28;20231;-70
2022/08/20 01:53:49;;;;;;;1.37;1.27;;;;;;;20.32;78.81;98052.00;5053899;28;20191;-70
2022/08/20 01:56:19;;;;;;;2.37;1.30;;;;;;;20.31;78.63;98058.50;5053563;28;20545;-70
2022/08/20 01:58:49;;;;;;;1.30;1.07;;;;;;;20.31;78.96;98050.41;5054269;28;20236;-71
2022/08/20 02:01:22;;;;;;;2.10;1.30;;;;;;;20.35;78.27;98060.34;5053484;28;20197;-71
2022/08/20 02:03:50;;;;;;;1.17;1.10;;;;;;;20.32;78.82;98060.09;5053718;28;20295;-71
2022/08/20 02:06:17;;;;;;;1.33;1.20;;;;;;;20.27;79.22;98055.56;5053443;28;20204;-71
2022/08/20 02:08:43;;;;;;;1.20;1.20;;;;;;;20.28;78.96;98059.88;5053605;28;20201;-70
2022/08/20 02:11:11;;;;;;;0.93;0.93;;;;;;;20.30;78.58;98065.00;5054079;28;20228;-70
2022/08/20 02:13:39;;;;;;;1.23;1.10;;;;;;;20.22;79.34;98063.69;5054062;28;20212;-71
2022/08/20 02:16:06;;;;;;;2.63;1.10;;;;;;;20.20;79.51;98065.03;5053601;28;20212;-70
2022/08/20 02:18:32;;;;;;;1.40;1.30;;;;;;;20.20;79.57;98065.03;5054108;28;20690;-71
2022/08/20 02:20:59;;;;;;;1.60;1.10;;;;;;;20.11;80.21;98064.81;5053225;28;20263;-70
2022/08/20 02:23:26;;;;;;;1.27;1.17;;;;;;;20.18;79.60;98067.22;5053505;28;20240;-70
2022/08/20 02:25:53;;;;;;;1.73;1.30;;;;;;;20.16;79.65;98064.00;5053181;28;20572;-70
2022/08/20 02:28:20;;;;;;;1.40;1.30;;;;;;;20.17;79.69;98073.72;5053170;28;20669;-70
2022/08/20 02:30:52;;;;;;;2.07;1.40;;;;;;;20.15;80.05;98082.09;5053209;28;20233;-70
2022/08/20 02:33:20;;;;;;;1.40;1.30;;;;;;;20.25;79.11;98081.22;5053449;28;20280;-70
2022/08/20 02:35:49;;;;;;;1.73;1.30;;;;;;;20.19;79.94;98079.63;5053365;28;20303;-71
2022/08/20 02:38:16;;;;;;;1.27;0.90;;;;;;;20.08;81.09;98073.47;5053397;28;20384;-70
2022/08/20 02:40:44;;;;;;;1.03;1.03;;;;;;;20.06;80.97;98081.03;5053405;28;20304;-70
2022/08/20 02:43:11;;;;;;;1.37;1.20;;;;;;;20.11;80.96;98072.13;5053172;28;20415;-71
2022/08/20 02:45:42;;;;;;;1.47;1.30;;;;;;;20.08;81.17;98078.88;5053251;28;20212;-70
2022/08/20 02:48:17;;;;;;;1.53;1.30;;;;;;;20.15;80.11;98075.84;5053028;28;20636;-70
2022/08/20 02:50:43;;;;;;;1.30;1.20;;;;;;;20.16;80.38;98075.59;5055279;28;20228;-70
2022/08/20 02:53:10;;;;;;;1.30;1.20;;;;;;;20.19;80.40;98074.22;5057314;28;20209;-70
2022/08/20 02:55:37;;;;;;;3.47;1.30;;;;;;;20.23;79.78;98077.97;5057242;28;20245;-70
2022/08/20 02:58:03;;;;;;;1.20;1.10;;;;;;;20.24;79.97;98069.59;5057139;28;20208;-70
2022/08/20 03:00:31;;;;;;;1.20;1.20;;;;;;;20.24;80.15;98063.38;5057111;28;20308;-70
2022/08/20 03:02:58;;;;;;;1.30;1.20;;;;;;;20.21;80.31;98058.56;5056807;28;20292;-71
2022/08/20 03:05:24;;;;;;;2.20;1.33;;;;;;;20.24;79.89;98048.00;5057092;28;20296;-71
2022/08/20 03:07:55;;;;;;;2.37;1.30;;;;;;;20.21;80.48;98053.97;5056897;28;20296;-70
2022/08/20 03:10:24;;;;;;;1.53;1.43;;;;;;;20.18;80.76;98056.41;5056659;28;20632;-70
2022/08/20 03:12:52;;;;;;;1.50;1.40;;;;;;;20.08;81.24;98051.06;5057672;28;20213;-70
2022/08/20 03:15:19;;;;;;;1.77;1.40;;;;;;;20.07;81.32;98044.06;5056481;28;20743;-70
2022/08/20 03:17:46;;;;;;;1.50;1.40;;;;;;;20.08;81.53;98042.97;5056785;28;20201;-70
2022/08/20 03:20:14;;;;;;;1.87;1.40;;;;;;;20.12;81.32;98042.13;5056582;28;20222;-70
2022/08/20 03:22:41;;;;;;;1.70;1.60;;;;;;;20.13;81.29;98043.78;5056617;28;20209;-70
2022/08/20 03:25:09;;;;;;;1.60;1.50;;;;;;;20.12;81.42;98049.44;5056267;28;20209;-70
2022/08/20 03:27:35;;;;;;;1.83;1.73;;;;;;;20.12;81.20;98049.44;5056653;28;20291;-70
2022/08/20 03:30:02;;;;;;;1.37;1.37;;;;;;;20.16;81.46;98055.91;5056366;28;20316;-71
2022/08/20 03:32:29;;;;;;;2.00;1.80;;;;;;;20.16;81.16;98053.19;5056250;28;20712;-70
2022/08/20 03:34:55;;;;;;;1.97;1.47;;;;;;;20.17;81.46;98052.13;5056473;28;20296;-70
2022/08/20 03:37:22;;;;;;;1.50;1.40;;;;;;;20.13;81.21;98045.66;5055942;28;20269;-70
2022/08/20 03:39:48;;;;;;;1.40;1.40;;;;;;;20.14;81.40;98041.88;5056279;28;20316;-70
2022/08/20 03:42:14;;;;;;;1.50;1.40;;;;;;;20.11;81.34;98051.31;5056029;28;20690;-70
2022/08/20 03:44:41;;;;;;;1.73;1.63;;;;;;;20.12;81.54;98052.94;5056287;28;20299;-70
2022/08/20 03:47:08;;;;;;;1.77;1.67;;;;;;;20.13;81.60;98059.97;5056121;28;20699;-71
2022/08/20 03:49:35;;;;;;;1.90;1.80;;;;;;;20.09;81.71;98056.22;5056035;28;20229;-70
2022/08/20 03:52:04;;;;;;;1.60;1.50;;;;;;;20.13;81.65;98059.16;5055752;28;20569;-70
2022/08/20 03:54:30;;;;;;;2.00;1.90;;;;;;;20.09;82.03;98061.63;5056138;28;20201;-70
2022/08/20 03:56:57;;;;;;;2.00;1.90;;;;;;;20.08;82.18;98062.69;5056102;28;20215;-70
2022/08/20 03:59:23;;;;;;;1.97;1.80;;;;;;;20.04;82.55;98067.00;5055595;28;20225;-70
2022/08/20 04:01:51;;;;;;;2.13;1.67;;;;;;;20.06;82.60;98069.41;5055461;28;20283;-70
2022/08/20 04:04:17;;;;;;;2.00;1.67;;;;;;;20.05;82.68;98068.63;5055983;28;20205;-70
2022/08/20 04:06:46;;;;;;;1.90;1.60;;;;;;;20.01;83.05;98067.56;5055512;28;20739;-70
2022/08/20 04:09:13;;;;;;;1.93;1.63;;;;;;;19.98;83.31;98065.41;5055404;28;20742;-70
2022/08/20 04:11:40;;;;;;;1.70;1.60;;;;;;;20.04;83.02;98066.19;5055459;28;20261;-71
2022/08/20 04:14:07;;;;;;;1.80;1.70;;;;;;;20.05;82.55;98070.50;5055741;28;20208;-70
2022/08/20 04:16:33;;;;;;;1.87;1.77;;;;;;;20.02;83.32;98066.47;5055361;28;20640;-70
2022/08/20 04:19:00;;;;;;;1.70;1.60;;;;;;;19.99;83.41;98067.00;5055590;28;20311;-70
2022/08/20 04:21:26;;;;;;;1.80;1.70;;;;;;;20.01;83.38;98062.16;5055688;28;20208;-70
2022/08/20 04:23:54;;;;;;;1.70;1.60;;;;;;;20.01;83.70;98066.75;5055259;28;20664;-70
2022/08/20 04:26:21;;;;;;;1.80;1.70;;;;;;;20.00;83.98;98068.66;5056317;28;20244;-70
2022/08/20 04:28:48;;;;;;;2.07;1.90;;;;;;;20.00;83.51;98074.03;5055308;28;20205;-70
2022/08/20 04:31:16;;;;;;;1.80;1.70;;;;;;;20.01;83.68;98077.53;5055408;28;20252;-70
2022/08/20 04:33:43;;;;;;;2.20;1.70;;;;;;;20.06;83.04;98082.91;5055416;28;20212;-70
2022/08/20 04:36:09;;;;;;;2.50;2.10;;;;;;;20.05;83.44;98082.13;5055317;28;20213;-71
2022/08/20 04:38:36;;;;;;;2.53;2.33;;;;;;;20.09;83.18;98090.47;5055218;28;20208;-70
2022/08/20 04:41:02;;;;;;;2.13;1.70;;;;;;;20.05;83.61;98084.00;5054896;28;20567;-70
2022/08/20 04:43:32;;;;;;;1.87;1.77;;;;;;;20.04;83.94;98087.78;5054875;28;20655;-70
2022/08/20 04:46:02;;;;;;;2.27;2.07;;;;;;;20.06;83.54;98093.69;5054846;28;20684;-70
2022/08/20 04:48:29;;;;;;;2.30;2.10;;;;;;;20.07;83.78;98089.94;5054817;28;20209;-70
2022/08/20 04:50:57;;;;;;;2.20;2.10;;;;;;;20.07;83.89;98092.63;5054920;28;20261;-70
2022/08/20 04:53:25;;;;;;;2.27;2.10;;;;;;;20.10;84.01;98102.88;5054881;28;20305;-70
2022/08/20 04:55:53;;;;;;;1.90;1.80;;;;;;;20.08;84.05;98092.38;5054906;28;20240;-70
2022/08/20 04:58:26;;;;;;;2.17;2.03;;;;;;;20.11;84.11;98088.34;5054544;28;20642;-70
2022/08/20 05:00:55;;;;;;;2.40;2.30;;;;;;;20.06;84.49;98091.81;5054744;28;20225;-71
2022/08/20 05:03:23;;;;;;;2.50;2.33;;;;;;;20.08;84.92;98095.06;5054462;28;20672;-70
2022/08/20 05:05:50;;;;;;;1.90;1.80;;;;;;;20.07;85.42;98098.03;5054423;28;20209;-71
2022/08/20 05:08:18;;;;;;;2.87;2.33;;;;;;;20.01;87.99;98107.22;5054643;28;20205;-70
2022/08/20 05:10:46;;;;;;;2.60;2.40;;;;;;;19.95;90.07;98103.75;5054394;28;20229;-71
2022/08/20 05:13:12;;;;;;;3.83;2.40;;;;;;;19.89;89.43;98107.56;5054755;28;20205;-70
2022/08/20 05:15:39;;;;;;;2.70;2.40;;;;;;;19.85;90.14;98113.78;5055061;28;20215;-70
2022/08/20 05:18:07;;;;;;;2.37;2.17;;;;;;;19.82;91.78;98103.53;5054373;28;20233;-70
2022/08/20 05:20:39;;;;;;;3.57;2.30;;;;;;;19.77;92.11;98117.06;5053910;28;20221;-70
2022/08/20 05:23:08;;;;;;;2.80;2.50;;;;;;;19.73;92.38;98114.09;5053999;28;20280;-70
2022/08/20 05:25:35;;;;;;;2.70;2.50;;;;;;;19.69;93.59;98116.53;5053905;28;20575;-70
2022/08/20 05:28:08;;;;;;;3.60;2.50;;;;;;;19.68;93.89;98117.63;5053933;28;20201;-70
2022/08/20 05:30:37;;;;;;;4.07;2.80;;;;;;;19.63;94.37;98124.94;5053628;28;20229;-70
2022/08/20 05:33:06;;;;;;;2.37;2.23;;;;;;;19.62;94.54;98122.50;5053868;28;20664;-71
2022/08/20 05:35:34;;;;;;;3.33;2.80;;;;;;;19.66;93.25;98128.97;5054016;28;20292;-70
2022/08/20 05:38:01;;;;;;;5.03;2.90;;;;;;;19.66;93.58;98118.19;5053928;28;20259;-70
2022/08/20 05:40:28;;;;;;;3.10;2.80;;;;;;;19.71;93.84;98118.16;5053448;28;20577;-70
2022/08/20 05:42:54;;;;;;;2.87;2.60;;;;;;;19.65;94.70;98128.16;5053852;28;20292;-70
2022/08/20 05:45:21;;;;;;;2.60;2.47;;;;;;;19.69;94.44;98132.72;5053876;28;20299;-71
2022/08/20 05:47:48;;;;;;;3.10;2.90;;;;;;;19.68;94.12;98128.41;5053576;28;20648;-70
2022/08/20 05:50:16;;;;;;;2.70;2.50;;;;;;;19.68;93.29;98131.09;5053717;28;20312;-70
2022/08/20 05:52:43;;;;;;;4.10;2.50;;;;;;;19.80;91.55;98130.78;5053585;28;20300;-70
2022/08/20 05:55:12;;;;;;;4.63;2.80;;;;;;;19.86;90.80;98140.50;5053837;28;20617;-71
2022/08/20 05:57:39;;;;;;;2.97;2.77;;;;;;;19.88;92.33;98138.31;5053669;28;20216;-70
2022/08/20 06:00:12;;;;;;;2.63;2.43;;;;;;;19.97;90.94;98131.25;5053638;28;20283;-70
2022/08/20 06:05:24;;;;;;;2.47;2.33;;;;;;;20.23;90.58;98123.88;5054109;28;20172;-70
2022/08/20 06:07:52;;;;;;;3.40;2.50;;;;;;;20.35;87.21;98135.16;5053613;28;20299;-70
2022/08/20 06:10:18;;;;;;;2.80;2.60;;;;;;;20.47;88.05;98130.19;5053489;28;20225;-70
2022/08/20 06:12:46;;;;;;;2.80;2.60;;;;;;;20.47;85.86;98131.00;5053405;28;20299;-70
2022/08/20 06:15:13;;;;;;;2.90;2.70;;;;;;;20.53;85.22;98129.09;5053219;28;20205;-71
2022/08/20 06:17:40;;;;;;;2.50;2.30;;;;;;;20.52;84.58;98135.59;5052929;28;20217;-70
2022/08/20 06:20:08;;;;;;;2.97;2.77;;;;;;;20.53;84.65;98129.09;5053217;28;20232;-70
2022/08/20 06:22:36;;;;;;;2.93;2.50;;;;;;;20.58;85.04;98134.47;5052874;28;20303;-70
2022/08/20 06:25:03;;;;;;;2.50;2.30;;;;;;;20.60;85.28;98127.69;5052962;28;20247;-70
2022/08/20 06:27:30;;;;;;;2.80;2.60;;;;;;;20.59;84.83;98142.28;5053322;28;20209;-70
2022/08/20 06:29:56;;;;;;;2.60;2.40;;;;;;;20.62;84.87;98128.19;5053073;28;20240;-71
2022/08/20 06:32:25;;;;;;;3.07;2.57;;;;;;;20.72;83.98;98136.25;5053179;28;20229;-70
2022/08/20 06:34:52;;;;;;;2.90;2.70;;;;;;;20.67;83.92;98130.88;5053249;28;20237;-71
2022/08/20 06:37:20;;;;;;;2.60;2.40;;;;;;;20.65;84.19;98143.84;5053264;28;20205;-70
2022/08/20 06:39:47;;;;;;;3.00;2.70;;;;;;;20.69;83.68;98141.41;5052581;28;20229;-70
2022/08/20 06:42:13;;;;;;;3.37;3.00;;;;;;;20.74;83.41;98138.66;5052748;28;20300;-70
2022/08/20 06:44:39;;;;;;;3.03;2.83;;;;;;;20.75;83.86;98140.28;5053214;28;20295;-70
2022/08/20 06:47:06;;;;;;;3.47;2.67;;;;;;;20.71;83.67;98147.34;5052880;28;20224;-70
2022/08/20 06:49:36;;;;;;;4.40;2.83;;;;;;;20.79;83.34;98149.44;5053017;28;20221;-70
2022/08/20 06:52:04;;;;;;;3.00;2.80;;;;;;;20.83;83.42;98143.19;5052621;28;20267;-71
2022/08/20 06:54:31;;;;;;;2.70;2.50;;;;;;;20.77;83.44;98152.44;5052772;28;20211;-70
2022/08/20 06:56:57;;;;;;;3.10;2.80;;;;;;;20.68;83.96;98154.13;5052625;28;20205;-70
2022/08/20 06:59:24;;;;;;;2.93;2.70;;;;;;;20.74;83.32;98142.16;5053094;28;20564;-70
2022/08/20 07:01:50;;;;;;;3.37;3.03;;;;;;;20.69;84.14;98152.19;5053012;28;20211;-70
2022/08/20 07:04:16;;;;;;;5.10;3.00;;;;;;;20.68;83.67;98137.91;5052689;28;20735;-70
2022/08/20 07:06:43;;;;;;;3.20;3.00;;;;;;;20.73;83.53;98142.44;5053032;28;20201;-70
2022/08/20 07:09:10;;;;;;;4.67;2.70;;;;;;;20.72;83.49;98143.53;5052621;28;20794;-71
2022/08/20 07:11:37;;;;;;;3.50;2.80;;;;;;;20.78;82.77;98142.41;5052356;28;20767;-70
2022/08/20 07:14:04;;;;;;;3.50;3.20;;;;;;;20.76;82.73;98139.97;5052314;28;20201;-70
2022/08/20 07:16:31;;;;;;;2.60;2.50;;;;;;;20.74;82.60;98147.56;5052662;28;20205;-70
2022/08/20 07:18:58;;;;;;;3.17;2.73;;;;;;;20.70;82.58;98160.03;5052432;28;20317;-70
2022/08/20 07:21:25;;;;;;;3.00;2.80;;;;;;;20.71;82.68;98145.44;5052804;28;20209;-70
2022/08/20 07:23:51;;;;;;;3.10;2.80;;;;;;;20.80;82.77;98149.13;5052941;28;20220;-70
2022/08/20 07:26:18;;;;;;;3.63;2.90;;;;;;;20.85;82.07;98149.09;5052642;28;20255;-70
2022/08/20 07:28:45;;;;;;;4.00;2.90;;;;;;;20.89;82.13;98150.16;5052382;28;20292;-70
2022/08/20 07:33:55;;;;;;;3.80;2.90;;;;;;;20.97;80.80;98162.28;5052597;28;20632;-70
2022/08/20 07:36:22;;;;;;;3.13;2.93;;;;;;;21.07;80.19;98156.81;5052815;28;20300;-70
2022/08/20 07:38:51;;;;;;;4.03;3.20;;;;;;;21.21;80.06;98168.59;5055914;28;20204;-70
2022/08/20 07:41:19;;;;;;;3.33;2.87;;;;;;;21.18;79.46;98174.56;5056208;28;20311;-70
2022/08/20 07:43:46;;;;;;;3.00;2.80;;;;;;;21.47;78.66;98176.16;5055804;28;20296;-70
2022/08/20 07:46:16;;;;;;;2.70;2.50;;;;;;;21.50;77.44;98177.50;5055952;28;20688;-70
2022/08/20 07:48:48;;;;;;;3.23;2.90;;;;;;;21.51;77.38;98176.41;5056038;28;20205;-70
2022/08/20 07:51:17;;;;;;;3.43;3.23;;;;;;;21.55;76.56;98180.97;5055824;28;20695;-71
2022/08/20 07:53:45;;;;;;;2.97;2.50;;;;;;;21.64;76.83;98183.84;5056078;28;20251;-70
2022/08/20 07:56:15;;;;;;;3.00;2.80;;;;;;;21.70;76.54;98180.03;5055981;28;20292;-70
2022/08/20 07:58:48;;;;;;;3.10;2.80;;;;;;;21.55;76.85;98182.84;5055495;28;20656;-70
2022/08/20 08:01:17;;;;;;;3.00;2.70;;;;;;;21.67;76.40;98185.97;5055955;28;20186;-70
2022/08/20 08:03:44;;;;;;;3.37;2.60;;;;;;;21.90;75.51;98188.75;5055887;28;20573;-70
2022/08/20 08:06:11;;;;;;;2.80;2.60;;;;;;;22.12;75.41;98180.09;5055651;28;20209;-70
2022/08/20 08:08:39;;;;;;;4.60;3.07;;;;;;;22.15;74.45;98184.94;5055688;28;20608;-70
2022/08/20 08:11:07;;;;;;;2.97;2.70;;;;;;;22.24;73.39;98180.50;5055912;28;20236;-71
2022/08/20 08:13:36;;;;;;;3.90;2.77;;;;;;;22.34;73.47;98174.94;5055525;28;20201;-70
2022/08/20 08:16:05;;;;;;;3.13;2.80;;;;;;;22.08;73.96;98179.88;5038261;28;20202;-70
2022/08/20 08:18:38;;;;;;;3.40;3.10;;;;;;;22.49;73.11;98172.03;5055840;28;20648;-70
2022/08/20 08:21:06;;;;;;;3.47;2.60;;;;;;;22.68;71.42;98167.41;5055349;28;20193;-70
2022/08/20 08:23:33;;;;;;;3.60;3.30;;;;;;;22.24;72.94;98165.03;5055529;28;20231;-70
2022/08/20 08:26:00;;;;;;;4.13;2.87;;;;;;;22.42;72.39;98168.84;5055091;28;20205;-70
2022/08/20 08:28:29;;;;;;;3.10;2.90;;;;;;;22.49;72.49;98169.31;5055160;28;20296;-70
2022/08/20 08:30:56;;;;;;;4.05;3.13;;;;;;;22.34;72.73;98167.59;5054873;28;20279;-71
2022/08/20 08:33:29;;;;;;;3.33;3.03;;;;;;;22.23;72.81;98170.72;5055029;28;20205;-70
2022/08/20 08:36:02;;;;;;;3.53;2.80;;;;;;;22.44;71.70;98166.66;5055062;28;20641;-70
2022/08/20 08:38:31;;;;;;;3.40;3.10;;;;;;;22.32;72.78;98166.28;5055446;28;20227;-70
2022/08/20 08:41:03;;;;;;;3.20;2.90;;;;;;;22.64;72.11;98158.25;5055139;28;20312;-70
2022/08/20 08:43:31;;;;;;;3.70;2.80;;;;;;;23.01;69.14;98150.91;5054728;28;20658;-70
2022/08/20 08:46:01;;;;;;;4.10;3.42;;;;;;;22.85;69.29;98162.28;5055133;28;20301;-70
2022/08/20 08:48:37;;;;;;;3.35;3.05;;;;;;;22.61;70.55;98162.38;5055762;28;20296;-71
2022/08/20 08:51:11;;;;;;;2.92;2.70;;;;;;;22.23;71.12;98168.03;5054688;28;20209;-70
2022/08/20 08:53:53;;;;;;;3.03;2.30;;;;;;;22.53;70.56;98165.75;5037550;28;20288;-70
2022/08/20 08:56:23;;;;;;;4.30;3.00;;;;;;;22.58;71.13;98165.69;5054618;28;20656;-70
2022/08/20 08:58:49;;;;;;;3.00;2.70;;;;;;;22.78;68.44;98167.25;5054766;28;20237;-71
2022/08/20 09:01:21;;;;;;;3.28;3.00;;;;;;;22.61;69.37;98167.00;5054496;28;20664;-70
2022/08/20 09:03:50;;;;;;;3.57;2.60;;;;;;;22.61;69.06;98162.38;5037715;28;20205;-70
2022/08/20 09:06:22;;;;;;;2.80;2.50;;;;;;;22.62;70.40;98169.41;5054421;28;20215;-70
2022/08/20 09:08:52;;;;;;;3.38;3.17;;;;;;;22.67;70.91;98166.63;5054552;28;20193;-70
2022/08/20 09:11:21;;;;;;;3.40;3.10;;;;;;;22.56;70.51;98161.66;5054595;28;20241;-70
2022/08/20 09:13:47;;;;;;;4.00;3.70;;;;;;;22.67;70.48;98147.66;5054051;28;20664;-71
2022/08/20 09:16:14;;;;;;;3.07;2.87;;;;;;;22.86;70.26;98147.63;5054635;28;20300;-70
2022/08/20 09:18:41;;;;;;;3.45;3.15;;;;;;;23.00;69.21;98152.00;5054079;28;20209;-70
2022/08/20 09:21:08;;;;;;;3.88;2.53;;;;;;;23.09;68.02;98157.56;5054134;28;20235;-71
2022/08/20 09:23:35;;;;;;;3.00;2.80;;;;;;;23.06;68.09;98153.53;5053844;28;20301;-70
2022/08/20 09:26:01;;;;;;;2.92;2.70;;;;;;;23.18;68.52;98153.06;5053826;28;20702;-70
2022/08/20 09:28:28;;;;;;;2.75;2.58;;;;;;;23.10;68.01;98156.44;5053897;28;20288;-70
2022/08/20 09:30:55;;;;;;;2.63;2.42;;;;;;;22.98;68.83;98150.69;5053639;28;20341;-70
2022/08/20 09:33:21;;;;;;;2.70;2.40;;;;;;;22.86;68.89;98153.03;5053979;28;20219;-70
2022/08/20 09:35:47;;;;;;;2.28;2.08;;;;;;;23.15;67.99;98151.75;5053799;28;20319;-70
2022/08/20 09:38:14;;;;;;;2.00;1.90;;;;;;;23.07;66.84;98155.13;5053583;28;20686;-70
2022/08/20 09:40:40;;;;;;;1.75;1.65;;;;;;;22.91;67.29;98151.06;5035851;28;20231;-70
2022/08/20 09:43:08;;;;;;;2.30;1.37;;;;;;;22.92;67.30;98154.59;5054464;28;20293;-70
2022/08/20 09:45:35;;;;;;;1.60;1.50;;;;;;;22.84;66.81;98157.97;5053791;28;20205;-70
2022/08/20 09:48:02;;;;;;;1.70;1.60;;;;;;;22.72;66.62;98160.31;5053751;28;20215;-70
2022/08/20 09:50:33;;;;;;;1.60;1.50;;;;;;;22.76;66.99;98158.63;5053614;28;20231;-70
2022/08/20 09:53:01;;;;;;;1.90;1.80;;;;;;;22.81;67.30;98155.84;5054187;28;20210;-70
2022/08/20 09:55:34;;;;;;;2.10;1.80;;;;;;;22.81;67.63;98150.41;5053438;28;20287;-70
2022/08/20 09:58:03;;;;;;;1.88;1.77;;;;;;;22.82;67.66;98152.03;5054056;28;20280;-70
2022/08/20 10:00:30;;;;;;;2.10;1.90;;;;;;;22.77;68.14;98149.38;5052684;28;20231;-71
2022/08/20 10:02:56;;;;;;;2.63;1.87;;;;;;;22.83;67.46;98153.66;5053489;28;20201;-70
2022/08/20 10:05:23;;;;;;;1.73;1.60;;;;;;;22.73;67.06;98156.50;5053097;28;20668;-71
2022/08/20 10:07:49;;;;;;;1.33;1.23;;;;;;;22.96;65.26;98156.41;5053027;28;20347;-70
2022/08/20 10:10:16;;;;;;;1.52;1.20;;;;;;;23.18;64.62;98159.31;5053193;28;20226;-70
2022/08/20 10:12:43;;;;;;;1.30;1.20;;;;;;;23.16;65.52;98156.06;5052848;28;20692;-71
2022/08/20 10:15:10;;;;;;;1.65;1.55;;;;;;;22.96;66.60;98159.13;5053221;28;20212;-71
2022/08/20 10:17:39;;;;;;;1.45;1.30;;;;;;;23.03;66.77;98164.16;5053295;28;20209;-71
2022/08/20 10:20:07;;;;;;;1.50;1.45;;;;;;;22.90;67.24;98173.88;5053608;28;20221;-70
2022/08/20 10:22:33;;;;;;;1.20;1.20;;;;;;;23.15;66.66;98170.72;5053719;28;20201;-70
2022/08/20 10:25:00;;;;;;;1.20;1.00;;;;;;;23.34;65.44;98168.03;5053376;28;20292;-70
2022/08/20 10:27:26;;;;;;;1.45;0.82;;;;;;;23.08;65.86;98161.38;5052901;28;20751;-70
2022/08/20 10:29:53;;;;;;;0.88;0.88;;;;;;;23.42;63.55;98161.91;5052845;28;20669;-70
2022/08/20 10:32:19;;;;;;;0.70;0.70;;;;;;;23.42;63.35;98161.91;5052930;28;20316;-70
2022/08/20 10:34:46;;;;;;;0.68;0.68;;;;;;;23.40;63.34;98159.50;5052709;28;20299;-70
2022/08/20 10:37:17;;;;;;;0.50;0.50;;;;;;;23.80;62.48;98164.16;5053200;28;20291;-70
2022/08/20 10:39:45;;;;;;;1.85;1.75;;;;;;;24.01;61.08;98159.97;5053233;28;20321;-71
2022/08/20 10:42:12;;;;;;;0.70;0.70;;;;;;;24.39;60.67;98149.66;5053034;28;20215;-70
2022/08/20 10:44:39;;;;;;;1.80;1.70;;;;;;;24.53;60.42;98153.16;5053055;28;20209;-70
2022/08/20 10:47:24;;;;;;;1.55;0.73;;;;;;;24.23;60.64;98153.78;5052852;28;20216;-70
2022/08/20 10:49:53;;;;;;;1.13;1.10;;;;;;;24.51;60.27;98148.00;5052996;28;20263;-70
2022/08/20 10:52:20;;;;;;;1.20;1.10;;;;;;;23.87;62.38;98142.84;5052576;28;20712;-70
2022/08/20 10:54:46;;;;;;;0.80;0.80;;;;;;;23.65;63.73;98150.09;5053053;28;20307;-70
2022/08/20 10:57:22;;;;;;;0.95;0.95;;;;;;;23.96;63.28;98140.25;5052687;28;20299;-71
2022/08/20 10:59:51;;;;;;;2.00;1.02;;;;;;;24.03;62.49;98133.31;5052419;28;20597;-70
2022/08/20 11:02:19;;;;;;;2.17;0.85;;;;;;;23.80;63.01;98147.88;5052592;28;20642;-70
2022/08/20 11:04:46;;;;;;;0.80;0.80;;;;;;;23.50;63.57;98148.44;5052704;28;20645;-70
2022/08/20 11:07:19;;;;;;;1.10;0.70;;;;;;;23.38;63.29;98145.41;5052515;28;20687;-70
2022/08/20 11:09:48;;;;;;;0.73;0.73;;;;;;;23.19;63.30;98157.41;5035110;28;20308;-70
2022/08/20 11:12:16;;;;;;;0.70;0.70;;;;;;;23.12;63.08;98163.22;5055654;28;20229;-70
2022/08/20 11:14:43;;;;;;;0.70;0.70;;;;;;;23.08;64.16;98158.66;5056546;28;20205;-70
2022/08/20 11:17:11;;;;;;;0.70;0.70;;;;;;;23.10;64.06;98161.88;5056754;28;20292;-70
2022/08/20 11:19:44;;;;;;;2.47;1.00;;;;;;;22.96;64.35;98161.00;5056143;28;20607;-70
2022/08/20 11:22:11;;;;;;;1.02;0.80;;;;;;;22.96;64.72;98163.72;5056368;28;20211;-70
2022/08/20 11:24:38;;;;;;;0.85;0.70;;;;;;;22.88;65.42;98164.41;5056760;28;20209;-70
2022/08/20 11:27:09;;;;;;;2.28;0.90;;;;;;;22.79;65.59;98166.97;5056468;28;20297;-70
2022/08/20 11:29:36;;;;;;;1.30;1.20;;;;;;;22.94;65.10;98171.38;5055782;28;20740;-71
2022/08/20 11:32:04;;;;;;;0.90;0.90;;;;;;;23.05;64.27;98162.78;5056768;28;20323;-71
2022/08/20 11:34:31;;;;;;;0.88;0.88;;;;;;;23.22;63.62;98156.81;5056293;28;20296;-71
2022/08/20 11:36:58;;;;;;;0.82;0.82;;;;;;;23.14;62.83;98162.88;5056177;28;20637;-70
2022/08/20 11:39:26;;;;;;;0.73;0.70;;;;;;;23.26;62.03;98161.38;5055941;28;20225;-70
2022/08/20 11:41:52;;;;;;;0.85;0.80;;;;;;;23.45;61.82;98159.41;5056085;28;20209;-70
2022/08/20 11:44:19;;;;;;;0.98;0.70;;;;;;;23.47;60.46;98159.09;5055811;28;20219;-70